Time;durP1;ratioP1;P1;durP2;ratioP2;P2;SDS_P1;SDS_P2;PMS_P1;PMS_P2;Temp;Humidity;BMP_temperature;BMP_pressure;BME280_temperature;BME280_humidity;BME280_pressure;Samples;Min_cycle;Max_cycle;Signal;HPM_P1;HPM_P2
2023/03/09 00:02:00;;;;;;;;;;;18.00;61.00;;;;;;5037210;28;1282;-68
2023/03/09 00:04:25;;;;;;;;;;;18.00;61.00;;;;;;5040141;28;820;-67
2023/03/09 00:06:51;;;;;;;;;;;18.00;61.10;;;;;;5047416;28;1901;-68
2023/03/09 00:09:16;;;;;;;;;;;18.00;61.10;;;;;;5040651;28;841;-68
2023/03/09 00:11:42;;;;;;;;;;;17.90;61.10;;;;;;5035714;28;1345;-68
2023/03/09 00:14:08;;;;;;;;;;;17.90;61.10;;;;;;5041248;28;926;-67
2023/03/09 00:16:34;;;;;;;;;;;17.90;61.10;;;;;;5037810;28;887;-68
2023/03/09 00:18:59;;;;;;;;;;;17.90;61.10;;;;;;5041000;28;948;-68
2023/03/09 00:21:34;;;;;;;;;;;17.90;61.10;;;;;;5038862;28;1011;-68
2023/03/09 00:24:01;;;;;;;;;;;17.90;61.10;;;;;;5039283;28;862;-68
2023/03/09 00:26:26;;;;;;;;;;;17.90;61.10;;;;;;5037228;28;805;-68
2023/03/09 00:28:51;;;;;;;;;;;17.90;61.10;;;;;;5038818;28;1902;-68
2023/03/09 00:31:17;;;;;;;;;;;17.90;61.10;;;;;;5024107;28;1304;-67
2023/03/09 00:33:43;;;;;;;;;;;17.90;61.10;;;;;;5037207;28;1253;-67
2023/03/09 00:36:12;;;;;;;;;;;17.90;61.10;;;;;;5037094;28;919;-68
2023/03/09 00:38:37;;;;;;;;;;;17.90;61.20;;;;;;5039404;28;1180;-68
2023/03/09 00:41:03;;;;;;;;;;;17.90;61.10;;;;;;5038627;28;926;-68
2023/03/09 00:43:29;;;;;;;;;;;17.90;61.10;;;;;;5037820;28;1292;-68
2023/03/09 00:45:54;;;;;;;;;;;17.90;61.20;;;;;;5038870;28;983;-69
2023/03/09 00:48:20;;;;;;;;;;;17.90;61.10;;;;;;5039998;28;1963;-69
2023/03/09 00:50:45;;;;;;;;;;;17.90;61.10;;;;;;5039385;28;1083;-69
2023/03/09 00:53:11;;;;;;;;;;;17.90;61.20;;;;;;5035186;28;1251;-69
2023/03/09 00:55:36;;;;;;;;;;;17.90;61.20;;;;;;5039758;28;1055;-69
2023/03/09 00:58:02;;;;;;;;;;;17.90;61.20;;;;;;5037727;28;875;-68
2023/03/09 01:00:27;;;;;;;;;;;17.90;61.20;;;;;;5037096;28;1310;-68
2023/03/09 01:02:53;;;;;;;;;;;17.90;61.10;;;;;;5038688;28;1334;-68
2023/03/09 01:05:19;;;;;;;;;;;17.90;61.20;;;;;;5043363;28;875;-67
2023/03/09 01:07:45;;;;;;;;;;;17.90;61.20;;;;;;5036975;28;1985;-67
2023/03/09 01:10:11;;;;;;;;;;;17.90;61.20;;;;;;5035909;28;923;-67
2023/03/09 01:12:37;;;;;;;;;;;17.90;61.20;;;;;;5038852;28;1261;-67
2023/03/09 01:15:03;;;;;;;;;;;17.90;61.20;;;;;;5038873;28;848;-68
2023/03/09 01:17:28;;;;;;;;;;;17.90;61.20;;;;;;5041358;28;852;-67
2023/03/09 01:19:54;;;;;;;;;;;17.90;61.20;;;;;;5040369;28;802;-68
2023/03/09 01:22:19;;;;;;;;;;;17.90;61.20;;;;;;5032551;28;1254;-67
2023/03/09 01:24:45;;;;;;;;;;;17.90;61.20;;;;;;5037581;28;875;-67
2023/03/09 01:27:10;;;;;;;;;;;17.90;61.20;;;;;;5036758;28;2002;-67
2023/03/09 01:29:36;;;;;;;;;;;17.90;61.20;;;;;;5037126;28;847;-67
2023/03/09 01:32:01;;;;;;;;;;;17.90;61.20;;;;;;5036755;28;1276;-67
2023/03/09 01:34:27;;;;;;;;;;;17.90;61.20;;;;;;5040659;28;923;-67
2023/03/09 01:36:52;;;;;;;;;;;17.90;61.20;;;;;;5038795;28;1476;-68
2023/03/09 01:39:18;;;;;;;;;;;17.90;61.20;;;;;;5038262;28;1229;-68
2023/03/09 01:41:43;;;;;;;;;;;17.90;61.20;;;;;;5040680;28;1366;-68
2023/03/09 01:44:12;;;;;;;;;;;17.90;61.20;;;;;;5040243;28;859;-67
2023/03/09 01:46:43;;;;;;;;;;;17.80;61.20;;;;;;5034464;28;857;-68
2023/03/09 01:49:11;;;;;;;;;;;17.90;61.30;;;;;;5038081;28;1962;-68
2023/03/09 01:51:43;;;;;;;;;;;17.80;61.20;;;;;;5038278;28;1267;-68
2023/03/09 01:54:10;;;;;;;;;;;17.80;61.20;;;;;;5038764;28;852;-68
2023/03/09 01:56:36;;;;;;;;;;;17.80;61.20;;;;;;5037890;28;911;-68
2023/03/09 01:59:01;;;;;;;;;;;17.80;61.20;;;;;;5035166;28;1592;-68
2023/03/09 02:01:27;;;;;;;;;;;17.80;61.20;;;;;;5035731;28;931;-67
2023/03/09 02:03:53;;;;;;;;;;;17.80;61.20;;;;;;5035728;28;1227;-68
2023/03/09 02:06:19;;;;;;;;;;;17.80;61.20;;;;;;5034803;28;970;-68
2023/03/09 02:08:47;;;;;;;;;;;17.80;61.20;;;;;;5042311;28;1953;-68
2023/03/09 02:11:12;;;;;;;;;;;17.80;61.20;;;;;;5043197;28;892;-68
2023/03/09 02:13:40;;;;;;;;;;;17.80;61.20;;;;;;5041871;28;1236;-68
2023/03/09 02:16:05;;;;;;;;;;;17.80;61.20;;;;;;5042642;28;1160;-68
2023/03/09 02:18:31;;;;;;;;;;;17.80;61.30;;;;;;5039481;28;1107;-67
2023/03/09 02:21:05;;;;;;;;;;;17.80;61.20;;;;;;5044250;28;816;-67
2023/03/09 02:23:37;;;;;;;;;;;17.80;61.30;;;;;;5041018;28;1410;-67
2023/03/09 02:26:08;;;;;;;;;;;17.80;61.30;;;;;;5038177;28;1010;-67
2023/03/09 02:28:34;;;;;;;;;;;17.80;61.30;;;;;;5049883;28;1949;-67
2023/03/09 02:30:59;;;;;;;;;;;17.80;61.30;;;;;;5039687;28;931;-67
2023/03/09 02:33:26;;;;;;;;;;;17.80;61.30;;;;;;5045312;28;1416;-67
2023/03/09 02:35:55;;;;;;;;;;;17.80;61.30;;;;;;5040732;28;844;-67
2023/03/09 02:38:21;;;;;;;;;;;17.80;61.20;;;;;;5041259;28;1364;-67
2023/03/09 02:40:46;;;;;;;;;;;17.80;61.30;;;;;;5039658;28;872;-67
2023/03/09 02:43:12;;;;;;;;;;;17.80;61.30;;;;;;5040669;28;1394;-67
2023/03/09 02:45:37;;;;;;;;;;;17.80;61.30;;;;;;5039192;28;888;-67
2023/03/09 02:48:03;;;;;;;;;;;17.80;61.30;;;;;;5040659;28;1951;-67
2023/03/09 02:50:28;;;;;;;;;;;17.80;61.30;;;;;;5038236;28;846;-67
2023/03/09 02:52:54;;;;;;;;;;;17.80;61.30;;;;;;5025890;28;1345;-67
2023/03/09 02:55:19;;;;;;;;;;;17.80;61.30;;;;;;5039831;28;918;-68
2023/03/09 02:57:45;;;;;;;;;;;17.80;61.30;;;;;;5044337;28;1188;-69
2023/03/09 03:00:11;;;;;;;;;;;17.80;61.30;;;;;;5040132;28;852;-69
2023/03/09 03:02:37;;;;;;;;;;;17.70;61.30;;;;;;5037738;28;1311;-67
2023/03/09 03:05:03;;;;;;;;;;;17.80;61.30;;;;;;5041111;28;828;-67
2023/03/09 03:07:28;;;;;;;;;;;17.80;61.40;;;;;;5024849;28;2457;-67
2023/03/09 03:09:53;;;;;;;;;;;17.80;61.30;;;;;;5038985;28;883;-67
2023/03/09 03:12:19;;;;;;;;;;;17.80;61.40;;;;;;5040226;28;1278;-67
2023/03/09 03:14:44;;;;;;;;;;;17.80;61.30;;;;;;5048010;28;932;-67
2023/03/09 03:17:10;;;;;;;;;;;17.80;61.30;;;;;;5037920;28;850;-68
2023/03/09 03:19:36;;;;;;;;;;;17.70;61.30;;;;;;5041751;28;819;-66
2023/03/09 03:22:02;;;;;;;;;;;17.70;61.30;;;;;;5040982;28;1349;-66
2023/03/09 03:24:28;;;;;;;;;;;17.70;61.30;;;;;;5038127;28;844;-66
2023/03/09 03:26:53;;;;;;;;;;;17.70;61.30;;;;;;5039477;28;1965;-67
2023/03/09 03:29:19;;;;;;;;;;;17.70;61.30;;;;;;5044704;28;995;-67
2023/03/09 03:31:44;;;;;;;;;;;17.70;61.30;;;;;;5040393;28;1270;-68
2023/03/09 03:34:09;;;;;;;;;;;17.70;61.30;;;;;;5040117;28;838;-67
2023/03/09 03:36:35;;;;;;;;;;;17.70;61.30;;;;;;5039779;28;1218;-67
2023/03/09 03:39:00;;;;;;;;;;;17.70;61.30;;;;;;5042588;28;1346;-67
2023/03/09 03:41:26;;;;;;;;;;;17.70;61.30;;;;;;5038845;28;845;-65
2023/03/09 03:43:51;;;;;;;;;;;17.70;61.30;;;;;;5037921;28;1335;-67
2023/03/09 03:46:17;;;;;;;;;;;17.70;61.30;;;;;;5037534;28;888;-67
2023/03/09 03:48:42;;;;;;;;;;;17.70;61.30;;;;;;5042293;28;1902;-68
2023/03/09 03:51:08;;;;;;;;;;;17.70;61.30;;;;;;5039642;28;890;-67
2023/03/09 03:53:33;;;;;;;;;;;17.70;61.30;;;;;;5040118;28;1267;-67
2023/03/09 03:56:00;;;;;;;;;;;17.70;61.30;;;;;;5038356;28;868;-68
2023/03/09 03:58:26;;;;;;;;;;;17.70;61.30;;;;;;5040552;28;904;-68
2023/03/09 04:00:51;;;;;;;;;;;17.70;61.30;;;;;;5037701;28;812;-67
2023/03/09 04:03:17;;;;;;;;;;;17.70;61.30;;;;;;5039798;28;1277;-67
2023/03/09 04:05:42;;;;;;;;;;;17.70;61.30;;;;;;5036659;28;1006;-68
2023/03/09 04:08:08;;;;;;;;;;;17.70;61.30;;;;;;5038869;28;1962;-67
2023/03/09 04:10:33;;;;;;;;;;;17.70;61.30;;;;;;5035031;28;809;-68
2023/03/09 04:12:59;;;;;;;;;;;17.70;61.40;;;;;;5037608;28;1288;-67
2023/03/09 04:15:25;;;;;;;;;;;17.70;61.40;;;;;;5040069;28;890;-68
2023/03/09 04:17:51;;;;;;;;;;;17.70;61.40;;;;;;5040589;28;1443;-67
2023/03/09 04:20:16;;;;;;;;;;;17.70;61.40;;;;;;5040554;28;844;-67
2023/03/09 04:22:54;;;;;;;;;;;17.70;61.40;;;;;;5039089;28;1700;-68
2023/03/09 04:25:20;;;;;;;;;;;17.70;61.40;;;;;;5038766;28;844;-67
2023/03/09 04:27:45;;;;;;;;;;;17.70;61.40;;;;;;5039644;28;1902;-67
2023/03/09 04:30:11;;;;;;;;;;;17.70;61.40;;;;;;5038572;28;854;-68
2023/03/09 04:32:37;;;;;;;;;;;17.70;61.40;;;;;;5041112;28;1274;-67
2023/03/09 04:35:02;;;;;;;;;;;17.70;61.40;;;;;;5035950;28;784;-67
2023/03/09 04:37:28;;;;;;;;;;;17.70;61.40;;;;;;5048209;28;1155;-68
2023/03/09 04:39:53;;;;;;;;;;;17.70;61.40;;;;;;5039166;28;853;-68
2023/03/09 04:42:19;;;;;;;;;;;17.70;61.40;;;;;;5038100;28;1313;-68
2023/03/09 04:44:44;;;;;;;;;;;17.70;61.40;;;;;;5038766;28;1014;-68
2023/03/09 04:47:11;;;;;;;;;;;17.70;61.40;;;;;;5037873;28;1954;-68
2023/03/09 04:49:36;;;;;;;;;;;17.70;61.40;;;;;;5031457;28;1618;-67
2023/03/09 04:52:01;;;;;;;;;;;17.70;61.40;;;;;;5041153;28;1259;-67
2023/03/09 04:54:27;;;;;;;;;;;17.70;61.40;;;;;;5037721;28;778;-67
2023/03/09 04:56:52;;;;;;;;;;;17.70;61.40;;;;;;5039591;28;930;-68
2023/03/09 04:59:18;;;;;;;;;;;17.70;61.50;;;;;;5036880;28;986;-68
2023/03/09 05:01:43;;;;;;;;;;;17.70;61.40;;;;;;5037424;28;1259;-68
2023/03/09 05:04:09;;;;;;;;;;;17.70;61.50;;;;;;5038411;28;884;-68
2023/03/09 05:06:35;;;;;;;;;;;17.70;61.40;;;;;;5039051;28;926;-67
2023/03/09 05:09:02;;;;;;;;;;;17.70;61.40;;;;;;5037669;28;1914;-68
2023/03/09 05:11:27;;;;;;;;;;;17.70;61.40;;;;;;5037926;28;1295;-68
2023/03/09 05:13:53;;;;;;;;;;;17.70;61.30;;;;;;5039162;28;1165;-68
2023/03/09 05:16:18;;;;;;;;;;;17.70;61.30;;;;;;5035671;28;979;-68
2023/03/09 05:18:44;;;;;;;;;;;17.70;61.20;;;;;;5035010;28;869;-68
2023/03/09 05:21:09;;;;;;;;;;;17.80;61.10;;;;;;5039745;28;1358;-67
2023/03/09 05:23:35;;;;;;;;;;;17.80;61.00;;;;;;5035467;28;1379;-67
2023/03/09 05:26:01;;;;;;;;;;;17.80;60.90;;;;;;5036317;28;806;-66
2023/03/09 05:28:27;;;;;;;;;;;17.90;60.80;;;;;;5038408;28;1894;-68
2023/03/09 05:30:52;;;;;;;;;;;17.90;60.70;;;;;;5038341;28;880;-68
2023/03/09 05:33:18;;;;;;;;;;;17.90;60.50;;;;;;5017903;28;1944;-69
2023/03/09 05:35:43;;;;;;;;;;;18.00;60.40;;;;;;5038915;28;1880;-69
2023/03/09 05:38:09;;;;;;;;;;;18.00;60.30;;;;;;5038006;28;1181;-68
2023/03/09 05:40:34;;;;;;;;;;;18.00;60.20;;;;;;5041156;28;1481;-69
2023/03/09 05:43:00;;;;;;;;;;;18.10;60.10;;;;;;5040886;28;1383;-71
2023/03/09 05:45:26;;;;;;;;;;;18.00;60.00;;;;;;5040387;28;843;-69
2023/03/09 05:47:51;;;;;;;;;;;18.10;60.00;;;;;;5042544;28;1955;-71
2023/03/09 05:50:17;;;;;;;;;;;18.10;59.90;;;;;;5045401;28;845;-67
2023/03/09 05:52:42;;;;;;;;;;;18.10;59.90;;;;;;5039924;28;1287;-66
2023/03/09 05:55:09;;;;;;;;;;;18.10;59.80;;;;;;5042652;28;880;-69
2023/03/09 05:57:34;;;;;;;;;;;18.10;59.80;;;;;;5045970;28;1262;-70
2023/03/09 06:00:00;;;;;;;;;;;18.20;59.80;;;;;;5041761;28;801;-69
2023/03/09 06:02:26;;;;;;;;;;;18.20;59.70;;;;;;5042424;28;1270;-68
2023/03/09 06:04:51;;;;;;;;;;;18.20;59.80;;;;;;5043014;28;949;-68
2023/03/09 06:07:17;;;;;;;;;;;18.20;59.70;;;;;;5037644;28;1967;-69
2023/03/09 06:09:44;;;;;;;;;;;18.20;59.70;;;;;;5041855;28;1183;-70
2023/03/09 06:12:09;;;;;;;;;;;18.20;59.70;;;;;;5043345;28;1302;-68
2023/03/09 06:14:35;;;;;;;;;;;18.20;59.70;;;;;;5043587;28;844;-68
2023/03/09 06:17:01;;;;;;;;;;;18.20;59.60;;;;;;5041705;28;836;-67
2023/03/09 06:19:26;;;;;;;;;;;18.20;59.60;;;;;;5040960;28;1376;-68
2023/03/09 06:21:52;;;;;;;;;;;18.20;59.60;;;;;;5041883;28;1239;-67
2023/03/09 06:24:17;;;;;;;;;;;18.20;59.60;;;;;;5041957;28;1303;-67
2023/03/09 06:26:43;;;;;;;;;;;18.20;59.60;;;;;;5041364;28;878;-69
2023/03/09 06:29:08;;;;;;;;;;;18.20;60.20;;;;;;5044174;28;1965;-67
2023/03/09 06:31:34;;;;;;;;;;;18.20;59.60;;;;;;5043429;28;1248;-67
2023/03/09 06:33:59;;;;;;;;;;;18.20;59.60;;;;;;5041608;28;843;-68
2023/03/09 06:36:25;;;;;;;;;;;18.20;59.60;;;;;;5040402;28;998;-67
2023/03/09 06:38:50;;;;;;;;;;;18.20;59.60;;;;;;5042386;28;1395;-67
2023/03/09 06:41:16;;;;;;;;;;;18.20;59.70;;;;;;5041961;28;876;-67
2023/03/09 06:43:44;;;;;;;;;;;18.20;59.70;;;;;;5041338;28;1723;-67
2023/03/09 06:46:09;;;;;;;;;;;18.20;59.70;;;;;;5041644;28;876;-67
2023/03/09 06:48:35;;;;;;;;;;;18.20;59.70;;;;;;5038398;28;1953;-67
2023/03/09 06:51:00;;;;;;;;;;;18.20;59.70;;;;;;5038306;28;896;-67
2023/03/09 06:53:25;;;;;;;;;;;18.20;59.70;;;;;;5043626;28;1288;-68
2023/03/09 06:55:51;;;;;;;;;;;18.20;59.80;;;;;;5037661;28;1471;-67
2023/03/09 06:58:16;;;;;;;;;;;18.10;59.70;;;;;;5042023;28;1026;-70
2023/03/09 07:00:46;;;;;;;;;;;18.10;59.70;;;;;;5043213;28;800;-70
2023/03/09 07:03:15;;;;;;;;;;;18.10;59.80;;;;;;5037407;28;1358;-70
2023/03/09 07:05:41;;;;;;;;;;;18.10;59.80;;;;;;5043497;28;1195;-69
2023/03/09 07:08:07;;;;;;;;;;;18.10;59.80;;;;;;5041338;28;1914;-70
2023/03/09 07:10:32;;;;;;;;;;;18.10;59.80;;;;;;5041315;28;878;-71
2023/03/09 07:12:57;;;;;;;;;;;18.10;59.80;;;;;;5041115;28;1229;-74
2023/03/09 07:15:23;;;;;;;;;;;18.10;59.80;;;;;;5040743;28;916;-74
2023/03/09 07:17:49;;;;;;;;;;;18.10;59.90;;;;;;5043025;28;887;-67
2023/03/09 07:20:14;;;;;;;;;;;18.10;59.90;;;;;;5040430;28;852;-69
2023/03/09 07:22:40;;;;;;;;;;;18.10;59.90;;;;;;5040313;28;1288;-68
2023/03/09 07:25:06;;;;;;;;;;;18.00;59.90;;;;;;5037874;28;876;-67
2023/03/09 07:27:32;;;;;;;;;;;18.10;59.90;;;;;;5040494;28;1902;-69
2023/03/09 07:29:57;;;;;;;;;;;18.10;60.00;;;;;;5040713;28;911;-69
2023/03/09 07:32:23;;;;;;;;;;;18.00;60.00;;;;;;5039529;28;1359;-68
2023/03/09 07:34:49;;;;;;;;;;;18.10;60.10;;;;;;5041529;28;971;-67
2023/03/09 07:37:14;;;;;;;;;;;18.00;60.00;;;;;;5039445;28;1005;-68
2023/03/09 07:39:40;;;;;;;;;;;18.00;60.00;;;;;;5041025;28;1231;-68
2023/03/09 07:42:05;;;;;;;;;;;18.00;60.00;;;;;;5040524;28;1361;-68
2023/03/09 07:44:31;;;;;;;;;;;18.00;60.10;;;;;;5036709;28;934;-68
2023/03/09 07:46:56;;;;;;;;;;;18.00;60.10;;;;;;5042080;28;857;-68
2023/03/09 07:49:22;;;;;;;;;;;18.00;60.10;;;;;;5043640;28;1890;-69
2023/03/09 07:51:47;;;;;;;;;;;18.00;60.10;;;;;;5039242;28;1485;-69
2023/03/09 07:54:14;;;;;;;;;;;18.00;60.50;;;;;;5040165;28;931;-71
2023/03/09 07:56:40;;;;;;;;;;;18.00;60.10;;;;;;5040260;28;826;-70
2023/03/09 07:59:05;;;;;;;;;;;18.00;60.20;;;;;;5039778;28;860;-70
2023/03/09 08:01:31;;;;;;;;;;;18.00;60.20;;;;;;5042358;28;1350;-71
2023/03/09 08:03:56;;;;;;;;;;;18.00;60.20;;;;;;5038602;28;867;-71
2023/03/09 08:06:22;;;;;;;;;;;18.00;60.20;;;;;;5036840;28;930;-69
2023/03/09 08:08:55;;;;;;;;;;;17.90;60.20;;;;;;5037264;28;1978;-69
2023/03/09 08:11:20;;;;;;;;;;;17.90;60.20;;;;;;5038696;28;863;-69
2023/03/09 08:13:46;;;;;;;;;;;18.00;60.30;;;;;;5038046;28;1245;-70
2023/03/09 08:16:11;;;;;;;;;;;17.90;60.20;;;;;;5038021;28;867;-70
2023/03/09 08:18:37;;;;;;;;;;;17.90;60.30;;;;;;5038534;28;886;-69
2023/03/09 08:21:09;;;;;;;;;;;17.90;60.30;;;;;;5040358;28;829;-69
2023/03/09 08:23:35;;;;;;;;;;;17.90;60.30;;;;;;5039412;28;1292;-70
2023/03/09 08:26:01;;;;;;;;;;;17.90;60.30;;;;;;5037442;28;835;-69
2023/03/09 08:28:26;;;;;;;;;;;17.90;60.30;;;;;;5038048;28;1953;-70
2023/03/09 08:30:52;;;;;;;;;;;17.90;60.30;;;;;;5039679;28;781;-69
2023/03/09 08:33:17;;;;;;;;;;;17.90;60.40;;;;;;5038745;28;1264;-69
2023/03/09 08:35:43;;;;;;;;;;;17.90;60.40;;;;;;5034876;28;843;-69
2023/03/09 08:38:08;;;;;;;;;;;17.90;60.40;;;;;;5039068;28;1358;-69
2023/03/09 08:40:34;;;;;;;;;;;17.90;60.40;;;;;;5041137;28;1055;-69
2023/03/09 08:42:59;;;;;;;;;;;17.90;60.40;;;;;;5039216;28;1283;-69
2023/03/09 08:45:25;;;;;;;;;;;17.90;60.40;;;;;;5040203;28;828;-70
2023/03/09 08:47:50;;;;;;;;;;;17.90;60.50;;;;;;5040118;28;1965;-70
2023/03/09 08:50:15;;;;;;;;;;;17.90;60.40;;;;;;5040440;28;806;-70
2023/03/09 08:52:41;;;;;;;;;;;17.90;60.50;;;;;;5048061;28;1331;-70
2023/03/09 08:55:07;;;;;;;;;;;17.90;60.50;;;;;;5040320;28;853;-69
2023/03/09 08:57:33;;;;;;;;;;;17.90;60.50;;;;;;5036342;28;1036;-69
2023/03/09 08:59:58;;;;;;;;;;;17.90;60.50;;;;;;5039183;28;1077;-70
2023/03/09 09:02:24;;;;;;;;;;;17.90;60.50;;;;;;5035468;28;1292;-70
2023/03/09 09:04:49;;;;;;;;;;;17.90;60.50;;;;;;5037510;28;874;-70
2023/03/09 09:07:15;;;;;;;;;;;17.80;60.40;;;;;;5041415;28;1914;-69
2023/03/09 09:09:40;;;;;;;;;;;17.90;60.50;;;;;;5036402;28;868;-69
2023/03/09 09:12:06;;;;;;;;;;;17.90;60.50;;;;;;5037459;28;1263;-69
2023/03/09 09:14:32;;;;;;;;;;;17.90;60.50;;;;;;5017536;28;1381;-69
2023/03/09 09:16:58;;;;;;;;;;;17.90;60.40;;;;;;5036720;28;802;-70
2023/03/09 09:19:23;;;;;;;;;;;17.90;60.40;;;;;;5039175;28;1264;-70
2023/03/09 09:21:48;;;;;;;;;;;17.90;60.40;;;;;;5040918;28;1363;-70
2023/03/09 09:24:14;;;;;;;;;;;17.90;60.30;;;;;;5038836;28;841;-70
2023/03/09 09:26:41;;;;;;;;;;;17.90;60.30;;;;;;5040669;28;844;-69
2023/03/09 09:29:06;;;;;;;;;;;17.90;60.20;;;;;;5037847;28;1930;-69
2023/03/09 09:31:32;;;;;;;;;;;17.90;60.20;;;;;;5037602;28;1235;-69
2023/03/09 09:33:58;;;;;;;;;;;18.00;60.20;;;;;;5038126;28;880;-70
2023/03/09 09:36:24;;;;;;;;;;;18.00;60.20;;;;;;5036375;28;844;-70
2023/03/09 09:38:51;;;;;;;;;;;18.00;60.10;;;;;;5039327;28;1657;-70
2023/03/09 09:41:18;;;;;;;;;;;18.00;60.10;;;;;;5046590;28;888;-70
2023/03/09 09:43:44;;;;;;;;;;;18.00;60.10;;;;;;5035460;28;1269;-70
2023/03/09 09:46:10;;;;;;;;;;;18.00;60.00;;;;;;5037830;28;868;-70
2023/03/09 09:48:35;;;;;;;;;;;18.00;60.00;;;;;;5037186;28;2359;-70
2023/03/09 09:51:20;;;;;;;;;;;18.00;60.00;;;;;;5035637;28;908;-70
2023/03/09 09:53:48;;;;;;;;;;;18.00;59.90;;;;;;5037109;28;1361;-71
2023/03/09 09:56:15;;;;;;;;;;;18.00;59.90;;;;;;5039003;28;1042;-70
2023/03/09 09:58:40;;;;;;;;;;;18.00;59.90;;;;;;5039976;28;895;-70
2023/03/09 10:01:10;;;;;;;;;;;18.10;60.00;;;;;;5039525;28;936;-70
2023/03/09 10:03:37;;;;;;;;;;;18.10;59.90;;;;;;5046336;28;1298;-71
2023/03/09 10:06:20;;;;;;;;;;;18.00;59.90;;;;;;5036916;28;936;-70
2023/03/09 10:08:45;;;;;;;;;;;18.00;59.80;;;;;;5038691;28;1905;-71
2023/03/09 10:11:14;;;;;;;;;;;18.00;59.80;;;;;;5037336;28;811;-71
2023/03/09 10:13:46;;;;;;;;;;;18.00;59.80;;;;;;5040141;28;1332;-71
2023/03/09 10:16:22;;;;;;;;;;;18.00;59.80;;;;;;5038725;28;822;-71
2023/03/09 10:18:49;;;;;;;;;;;18.10;59.90;;;;;;5045664;28;884;-71
2023/03/09 10:21:17;;;;;;;;;;;18.00;59.80;;;;;;5036100;28;816;-70
2023/03/09 10:23:43;;;;;;;;;;;18.00;59.80;;;;;;5036431;28;1247;-70
2023/03/09 10:26:15;;;;;;;;;;;18.00;59.80;;;;;;5035794;28;903;-70
2023/03/09 10:28:44;;;;;;;;;;;18.00;59.80;;;;;;5043491;28;1894;-68
2023/03/09 10:31:09;;;;;;;;;;;18.10;59.80;;;;;;5043682;28;924;-69
2023/03/09 10:33:38;;;;;;;;;;;18.00;59.80;;;;;;5041745;28;1370;-69
2023/03/09 10:36:08;;;;;;;;;;;18.10;59.80;;;;;;5040369;28;938;-70
2023/03/09 10:38:34;;;;;;;;;;;18.10;59.80;;;;;;5040555;28;1489;-68
2023/03/09 10:40:59;;;;;;;;;;;18.10;59.80;;;;;;5050351;28;873;-68
2023/03/09 10:43:28;;;;;;;;;;;18.10;59.80;;;;;;5037951;28;1294;-69
2023/03/09 10:45:54;;;;;;;;;;;18.10;59.70;;;;;;5041014;28;899;-68
2023/03/09 10:48:24;;;;;;;;;;;18.10;59.70;;;;;;5040030;28;1989;-68
2023/03/09 10:51:00;;;;;;;;;;;18.10;59.70;;;;;;5038712;28;864;-68
2023/03/09 10:53:36;;;;;;;;;;;18.10;59.70;;;;;;5044407;28;1248;-69
2023/03/09 10:56:05;;;;;;;;;;;18.10;59.70;;;;;;5042941;28;836;-68
2023/03/09 10:58:31;;;;;;;;;;;18.10;59.70;;;;;;5041377;28;1067;-68
2023/03/09 11:00:58;;;;;;;;;;;18.10;59.60;;;;;;5038167;28;943;-68
2023/03/09 11:03:30;;;;;;;;;;;18.10;59.60;;;;;;5040520;28;1351;-69
2023/03/09 11:06:08;;;;;;;;;;;18.10;59.60;;;;;;5044123;28;855;-68
2023/03/09 11:08:33;;;;;;;;;;;18.10;59.50;;;;;;5041254;28;1906;-68
2023/03/09 11:11:03;;;;;;;;;;;18.10;59.50;;;;;;5048410;28;864;-69
2023/03/09 11:13:28;;;;;;;;;;;18.20;59.60;;;;;;5039220;28;1291;-69
2023/03/09 11:16:10;;;;;;;;;;;18.10;59.50;;;;;;5043138;28;847;-70
2023/03/09 11:18:35;;;;;;;;;;;18.10;59.60;;;;;;5037257;28;1258;-69
2023/03/09 11:21:01;;;;;;;;;;;18.10;59.70;;;;;;5041144;28;884;-68
2023/03/09 11:23:29;;;;;;;;;;;18.10;59.50;;;;;;5038867;28;1245;-67
2023/03/09 11:25:58;;;;;;;;;;;18.10;59.50;;;;;;5038800;28;880;-70
2023/03/09 11:28:23;;;;;;;;;;;18.10;59.60;;;;;;5042057;28;2191;-70
2023/03/09 11:30:49;;;;;;;;;;;18.10;59.50;;;;;;5039144;28;1425;-68
2023/03/09 11:33:15;;;;;;;;;;;18.10;59.50;;;;;;5039006;28;1376;-68
2023/03/09 11:35:40;;;;;;;;;;;18.10;59.50;;;;;;5037179;28;916;-68
2023/03/09 11:38:06;;;;;;;;;;;18.10;59.50;;;;;;5041399;28;1472;-68
2023/03/09 11:40:33;;;;;;;;;;;18.20;59.60;;;;;;5041951;28;1278;-68
2023/03/09 11:43:13;;;;;;;;;;;18.20;59.60;;;;;;5039241;28;1362;-68
2023/03/09 11:45:41;;;;;;;;;;;18.20;59.60;;;;;;5039621;28;1461;-68
2023/03/09 11:48:13;;;;;;;;;;;18.10;59.50;;;;;;5039675;28;1898;-68
2023/03/09 11:50:40;;;;;;;;;;;18.10;59.50;;;;;;5036797;28;935;-68
2023/03/09 11:53:06;;;;;;;;;;;18.10;59.50;;;;;;5040100;28;1285;-68
2023/03/09 11:55:36;;;;;;;;;;;18.10;59.50;;;;;;5037009;28;868;-68
2023/03/09 11:58:02;;;;;;;;;;;18.10;59.50;;;;;;5036351;28;879;-68
2023/03/09 12:00:29;;;;;;;;;;;18.10;59.50;;;;;;5039721;28;2220;-68
2023/03/09 12:03:15;;;;;;;;;;;18.10;59.50;;;;;;5041297;28;1458;-69
2023/03/09 12:05:48;;;;;;;;;;;18.20;59.50;;;;;;5040668;28;1257;-69
2023/03/09 12:08:18;;;;;;;;;;;18.20;59.50;;;;;;5038361;28;1922;-70
2023/03/09 12:10:46;;;;;;;;;;;18.20;59.50;;;;;;5039572;28;793;-69
2023/03/09 12:13:21;;;;;;;;;;;18.20;59.40;;;;;;5046786;28;1289;-69
2023/03/09 12:15:49;;;;;;;;;;;18.20;59.40;;;;;;5039187;28;876;-69
2023/03/09 12:18:16;;;;;;;;;;;18.20;59.40;;;;;;5039607;28;903;-69
2023/03/09 12:20:47;;;;;;;;;;;18.20;59.50;;;;;;5038765;28;922;-70
2023/03/09 12:23:31;;;;;;;;;;;18.20;59.40;;;;;;5037823;28;1391;-68
2023/03/09 12:25:57;;;;;;;;;;;18.20;59.40;;;;;;5038092;28;1688;-68
2023/03/09 12:28:22;;;;;;;;;;;18.20;59.50;;;;;;5034995;28;2040;-68
2023/03/09 12:30:52;;;;;;;;;;;18.20;59.40;;;;;;5042479;28;1413;-69
2023/03/09 12:33:37;;;;;;;;;;;18.20;59.40;;;;;;5038610;28;1498;-69
2023/03/09 12:36:03;;;;;;;;;;;18.20;59.40;;;;;;5037266;28;1302;-69
2023/03/09 12:38:29;;;;;;;;;;;18.20;59.40;;;;;;5039071;28;1329;-67
2023/03/09 12:40:54;;;;;;;;;;;18.20;59.40;;;;;;5037454;28;919;-66
2023/03/09 12:43:21;;;;;;;;;;;18.20;59.40;;;;;;5036136;28;1276;-66
2023/03/09 12:45:47;;;;;;;;;;;18.20;59.50;;;;;;5039245;28;1315;-67
2023/03/09 12:48:22;;;;;;;;;;;18.10;59.40;;;;;;5030502;28;1971;-66
2023/03/09 12:50:49;;;;;;;;;;;18.10;59.40;;;;;;5046421;28;867;-68
2023/03/09 12:53:18;;;;;;;;;;;18.20;59.50;;;;;;5047793;28;1370;-69
2023/03/09 12:55:48;;;;;;;;;;;18.10;59.50;;;;;;5037128;28;809;-67
2023/03/09 12:58:22;;;;;;;;;;;18.10;59.50;;;;;;5038031;28;860;-68
2023/03/09 13:00:54;;;;;;;;;;;18.10;59.50;;;;;;5036799;28;859;-68
2023/03/09 13:03:22;;;;;;;;;;;18.10;59.50;;;;;;5040431;28;1273;-69
2023/03/09 13:05:51;;;;;;;;;;;18.10;59.60;;;;;;5040171;28;1314;-67
2023/03/09 13:08:22;;;;;;;;;;;18.10;59.50;;;;;;5037827;28;1890;-67
2023/03/09 13:10:48;;;;;;;;;;;18.10;59.50;;;;;;5042391;28;1463;-67
2023/03/09 13:13:32;;;;;;;;;;;18.10;59.60;;;;;;5040500;28;1278;-67
2023/03/09 13:16:16;;;;;;;;;;;18.10;59.60;;;;;;5038934;28;895;-67
2023/03/09 13:18:42;;;;;;;;;;;18.10;59.60;;;;;;5038843;28;908;-68
2023/03/09 13:21:26;;;;;;;;;;;18.00;59.60;;;;;;5040293;28;2245;-69
2023/03/09 13:23:51;;;;;;;;;;;18.00;59.60;;;;;;5039413;28;1192;-70
2023/03/09 13:26:17;;;;;;;;;;;18.00;59.70;;;;;;5038331;28;837;-67
2023/03/09 13:28:47;;;;;;;;;;;18.10;59.70;;;;;;5035523;28;1907;-67
2023/03/09 13:31:24;;;;;;;;;;;18.00;59.70;;;;;;5047245;28;796;-68
2023/03/09 13:33:49;;;;;;;;;;;18.00;59.70;;;;;;5047152;28;1325;-69
2023/03/09 13:36:19;;;;;;;;;;;18.10;59.80;;;;;;5038216;28;824;-68
2023/03/09 13:38:46;;;;;;;;;;;18.00;59.80;;;;;;5032819;28;1140;-67
2023/03/09 13:41:15;;;;;;;;;;;18.00;60.50;;;;;;5032801;28;1089;-68
2023/03/09 13:43:44;;;;;;;;;;;18.00;59.80;;;;;;5034932;28;1357;-67
2023/03/09 13:46:15;;;;;;;;;;;18.00;59.80;;;;;;5033204;28;2120;-67
2023/03/09 13:48:44;;;;;;;;;;;18.00;59.90;;;;;;5038796;28;1902;-67
2023/03/09 13:51:23;;;;;;;;;;;18.00;59.90;;;;;;5049657;28;1500;-68
2023/03/09 13:53:48;;;;;;;;;;;18.00;59.90;;;;;;5042205;28;1283;-67
2023/03/09 13:56:14;;;;;;;;;;;18.00;59.90;;;;;;5040673;28;911;-68
2023/03/09 13:58:40;;;;;;;;;;;17.90;59.90;;;;;;5040581;28;2227;-70
2023/03/09 14:01:05;;;;;;;;;;;18.00;59.90;;;;;;5041811;28;1291;-69
2023/03/09 14:03:32;;;;;;;;;;;18.00;60.00;;;;;;5045239;28;1358;-69
2023/03/09 14:06:07;;;;;;;;;;;18.00;60.00;;;;;;5048550;28;942;-70
2023/03/09 14:08:34;;;;;;;;;;;18.00;60.00;;;;;;5038141;28;1957;-68
2023/03/09 14:11:03;;;;;;;;;;;18.00;60.10;;;;;;5042044;28;865;-68
2023/03/09 14:13:29;;;;;;;;;;;18.10;60.00;;;;;;5040069;28;1268;-69
2023/03/09 14:15:54;;;;;;;;;;;18.10;60.10;;;;;;5042959;28;920;-69
2023/03/09 14:18:29;;;;;;;;;;;18.10;59.90;;;;;;5045748;28;1142;-68
2023/03/09 14:20:55;;;;;;;;;;;18.10;60.10;;;;;;5043678;28;853;-68
2023/03/09 14:23:35;;;;;;;;;;;18.10;60.00;;;;;;5040288;28;1275;-69
2023/03/09 14:26:01;;;;;;;;;;;18.20;60.10;;;;;;5044049;28;892;-68
2023/03/09 14:28:30;;;;;;;;;;;18.20;59.90;;;;;;5045046;28;1989;-69
2023/03/09 14:30:56;;;;;;;;;;;18.20;60.00;;;;;;5040128;28;817;-68
2023/03/09 14:33:23;;;;;;;;;;;18.20;59.90;;;;;;5041745;28;1407;-69
2023/03/09 14:35:48;;;;;;;;;;;18.10;59.90;;;;;;5041551;28;831;-69